CDT,Max TemperatureF,Mean TemperatureF,Min TemperatureF,Max Dew PointF,MeanDew PointF,Min DewpointF,Max Humidity, Mean Humidity, Min Humidity, Max Sea Level PressureIn, Mean Sea Level PressureIn, Min Sea Level PressureIn, Max VisibilityMiles, Mean VisibilityMiles, Min VisibilityMiles, Max Wind SpeedMPH, Mean Wind SpeedMPH, Max Gust SpeedMPH,PrecipitationIn, CloudCover, Events, WindDirDegrees
2012-5-1,73,62,51,59,52,45,77,70,60,29.92,29.80,29.67,10,5,0,22,13,30,0.00,5,Rain,146
2012-5-2,82,71,60,64,60,54,77,69,54,29.81,29.76,29.63,10,8,3,17,10,24,0.87,5,Rain,182
2012-5-3,86,75,64,64,61,57,78,61,40,29.89,29.82,29.75,10,9,2,36,7,45,0.10,2,Rain,204
2012-5-4,86,75,64,64,59,55,77,63,42,29.99,29.90,29.83,10,10,5,28,8,39,0.63,2,Rain,92
2012-5-5,78,69,60,64,57,52,78,71,61,30.00,29.94,29.90,10,6,0,28,12,36,0.54,4,Rain,99
2012-5-6,75,68,62,64,57,54,78,70,61,29.99,29.92,29.82,10,8,2,21,11,26,0.50,6,Rain,55
2012-5-7,71,64,57,54,48,39,72,56,40,30.00,29.96,29.93,10,10,5,20,11,28,0.00,2,,311
2012-5-8,64,58,51,46,43,39,71,58,40,29.97,29.93,29.91,10,10,10,20,9,29,0.00,2,Rain,279
2012-5-9,68,58,48,46,39,28,76,52,24,30.05,29.99,29.95,10,10,7,18,7,22,0.00,2,,334
2012-5-10,77,62,48,43,35,21,66,39,12,30.01,29.95,29.89,10,10,5,15,6,20,0.00,0,,146
2012-5-11,80,70,59,52,45,32,55,42,28,30.21,30.01,29.92,10,10,10,22,13,29,0.00,0,Rain,237
2012-5-12,73,62,51,43,23,-22,67,31,4,30.35,30.29,30.21,10,10,2,16,9,21,0.00,1,,15
2012-5-13,78,61,44,36,16,-24,66,30,4,30.31,30.23,30.13,10,10,7,9,4,,0.00,0,,335
2012-5-14,86,68,51,39,20,-18,58,22,4,30.13,30.05,29.95,10,10,7,18,5,23,0.00,0,,228
2012-5-15,89,74,60,45,32,-17,55,34,4,30.05,29.93,29.88,10,10,10,24,12,31,0.00,0,,278
2012-5-16,89,73,57,37,27,10,48,24,9,30.16,30.10,30.05,10,10,7,9,6,,0.00,0,,4
2012-5-17,82,66,51,43,36,28,71,37,14,30.09,29.99,29.89,10,10,7,29,13,34,0.00,0,,155
2012-5-18,89,73,57,52,44,39,59,36,17,29.93,29.89,29.82,10,10,7,24,15,31,0.00,0,,165
2012-5-19,87,76,64,57,53,46,68,44,24,29.92,29.88,29.86,10,10,10,25,15,33,0.00,0,,167
2012-5-20,75,62,48,63,53,39,83,66,49,30.21,30.00,29.84,10,10,10,28,14,36,0.00,4,,272
2012-5-21,75,60,44,45,33,18,82,44,11,30.27,30.21,30.12,10,10,10,18,5,23,0.00,0,,353
2012-5-22,84,66,48,46,39,34,71,38,16,30.13,29.96,29.80,10,10,10,20,10,28,0.00,0,,153
2012-5-23,87,74,62,54,46,39,59,39,18,29.80,29.66,29.50,10,10,7,32,18,40,0.00,0,,159
2012-5-24,80,68,57,68,58,54,100,68,50,29.76,29.53,29.37,10,10,5,29,18,38,0.35,6,Rain,204
2012-5-25,69,60,51,61,56,50,94,83,53,30.10,29.99,29.77,10,10,7,9,4,,0.01,3,Rain,279
2012-5-26,73,65,57,66,62,55,100,85,73,30.12,30.00,29.88,10,10,7,23,14,30,1.11,3,Rain,108
2012-5-27,91,80,68,73,65,55,94,66,29,29.89,29.79,29.69,10,9,5,23,14,29,0.00,0,,172
2012-5-28,82,71,60,66,59,45,94,63,28,29.85,29.73,29.68,10,10,10,23,12,32,0.00,2,Rain,249
2012-5-29,69,61,53,52,45,39,88,57,37,29.96,29.89,29.83,10,10,10,25,10,36,0.00,2,,279
2012-5-30,64,55,46,52,44,41,88,66,42,30.03,29.98,29.92,10,10,10,15,8,20,0.03,2,Rain,323
2012-5-31,53,50,46,50,48,46,100,91,82,30.02,30.00,29.98,10,10,5,15,9,17,0.25,8,Rain,44